Time;durP1;ratioP1;P1;durP2;ratioP2;P2;SDS_P1;SDS_P2;PMS_P1;PMS_P2;Temp;Humidity;BMP_temperature;BMP_pressure;BME280_temperature;BME280_humidity;BME280_pressure;Samples;Min_cycle;Max_cycle;Signal;HPM_P1;HPM_P2
2022/06/09 00:00:30;;;;;;;14.00;9.30;;;;;;;15.29;58.08;98166.49;105981;1274;25167;-78
2022/06/09 00:03:12;;;;;;;14.10;9.50;;;;;;;15.26;58.09;98166.60;106021;1275;25209;-77
2022/06/09 00:05:40;;;;;;;15.80;9.10;;;;;;;15.24;58.13;98166.60;106023;1274;22565;-84
2022/06/09 00:08:08;;;;;;;14.30;8.80;;;;;;;15.20;58.23;98166.71;105920;1274;22538;-82
2022/06/09 00:10:52;;;;;;;;;;;;;;;;;;;;;
2022/06/09 00:13:22;;;;;;;12.50;8.00;;;;;;;15.16;58.38;98164.66;105918;1276;22544;-81
2022/06/09 00:15:49;;;;;;;14.20;7.00;;;;;;;15.13;58.39;98160.73;105934;1275;22636;-78
2022/06/09 00:18:19;;;;;;;14.20;6.70;;;;;;;15.11;58.47;98161.02;105975;1274;25347;-79
2022/06/09 00:20:46;;;;;;;12.70;7.20;;;;;;;15.11;58.43;98159.96;105969;1274;22694;-77
2022/06/09 00:23:15;;;;;;;13.40;7.50;;;;;;;15.13;58.46;98157.40;105989;1275;23940;-82
2022/06/09 00:25:45;;;;;;;11.50;6.90;;;;;;;15.12;58.51;98153.66;105866;1273;25282;-77
2022/06/09 00:28:13;;;;;;;12.10;7.50;;;;;;;15.07;58.58;98151.57;105959;1274;22546;-84
2022/06/09 00:30:40;;;;;;;14.90;6.60;;;;;;;15.02;58.60;98149.77;105979;1274;24313;-82
2022/06/09 00:33:11;;;;;;;11.10;7.10;;;;;;;15.00;58.69;98150.05;105905;1275;22534;-82
2022/06/09 00:35:39;;;;;;;11.80;7.70;;;;;;;14.93;58.72;98143.77;105991;1275;25194;-77
2022/06/09 00:38:06;;;;;;;11.70;6.80;;;;;;;14.88;58.76;98143.50;106213;1274;22606;-83
2022/06/09 00:40:33;;;;;;;12.80;6.90;;;;;;;14.86;58.80;98140.27;105976;1274;22719;-83
2022/06/09 00:43:02;;;;;;;10.60;6.20;;;;;;;14.85;58.86;98138.65;105858;1274;25238;-76
2022/06/09 00:45:38;;;;;;;14.50;7.00;;;;;;;14.84;58.98;98141.27;105946;1276;22546;-76
2022/06/09 00:48:43;;;;;;;13.70;7.40;;;;;;;14.83;58.94;98136.14;105935;1274;25214;-77
2022/06/09 00:51:19;;;;;;;14.10;7.60;;;;;;;14.83;59.12;98136.57;106197;1274;22729;-82
2022/06/09 00:53:54;;;;;;;11.10;6.90;;;;;;;14.81;59.23;98133.35;106172;1274;22531;-76
2022/06/09 00:56:22;;;;;;;12.30;6.90;;;;;;;14.78;59.04;98133.11;106019;1273;25463;-79
2022/06/09 00:58:52;;;;;;;15.10;8.20;;;;;;;14.76;59.25;98137.44;105891;1274;23947;-79
2022/06/09 01:01:43;;;;;;;15.20;8.10;;;;;;;14.72;59.35;98133.02;106039;1274;24101;-82
2022/06/09 01:04:12;;;;;;;15.10;7.60;;;;;;;14.68;59.38;98133.98;106007;1274;22571;-77
2022/06/09 01:06:50;;;;;;;18.50;8.10;;;;;;;14.68;59.43;98134.88;106001;1275;25270;-77
2022/06/09 01:09:29;;;;;;;15.90;8.40;;;;;;;14.70;59.52;98131.84;105919;1277;22544;-82
2022/06/09 01:12:00;;;;;;;12.50;7.60;;;;;;;14.72;59.60;98131.96;105985;1274;24208;-83
2022/06/09 01:14:36;;;;;;;16.60;8.80;;;;;;;14.71;59.59;98131.90;106012;1274;22642;-79
2022/06/09 01:17:37;;;;;;;16.10;8.40;;;;;;;14.72;59.67;98125.38;106034;1274;22699;-83
2022/06/09 01:20:42;;;;;;;14.20;7.80;;;;;;;14.70;59.90;98122.46;105985;1274;24281;-85
2022/06/09 01:23:33;;;;;;;10.30;5.50;;;;;;;14.66;59.65;98119.52;106247;1275;23957;-81
2022/06/09 01:26:31;;;;;;;11.60;5.60;;;;;;;14.62;59.97;98114.39;106020;1274;22908;-80
2022/06/09 01:29:32;;;;;;;11.60;5.40;;;;;;;14.60;60.05;98109.52;106049;1275;22548;-78
2022/06/09 01:32:23;;;;;;;10.10;4.90;;;;;;;14.62;60.10;98103.27;105955;1275;25476;-81
2022/06/09 01:35:11;;;;;;;15.60;5.40;;;;;;;14.66;60.16;98099.08;105898;1277;22712;-81
2022/06/09 01:37:48;;;;;;;11.20;5.80;;;;;;;14.73;60.16;98098.70;106214;1274;23836;-78
2022/06/09 01:40:18;;;;;;;11.00;5.80;;;;;;;14.77;60.28;98097.36;106030;1274;25234;-78
2022/06/09 01:42:48;;;;;;;14.30;5.90;;;;;;;14.77;60.18;98098.60;106032;1274;25467;-77
2022/06/09 01:45:26;;;;;;;16.30;6.70;;;;;;;14.76;60.40;98096.11;105968;1277;25422;-84
2022/06/09 01:48:05;;;;;;;15.70;7.20;;;;;;;14.70;60.27;98091.54;106012;1274;22570;-80
2022/06/09 01:51:16;;;;;;;16.00;7.00;;;;;;;14.64;60.36;98089.23;106056;1274;22824;-77
2022/06/09 01:53:55;;;;;;;13.60;6.80;;;;;;;14.59;60.34;98092.05;105439;1284;24304;-84
2022/06/09 01:56:39;;;;;;;12.70;7.20;;;;;;;14.59;60.41;98090.02;105332;1286;22535;-78
2022/06/09 01:59:19;;;;;;;12.20;7.20;;;;;;;14.59;60.56;98086.91;105630;1284;22638;-83
2022/06/09 02:02:27;;;;;;;14.20;7.20;;;;;;;14.55;60.38;98083.17;105610;1281;22570;-76
2022/06/09 02:05:06;;;;;;;15.00;6.90;;;;;;;14.45;60.54;98082.64;105616;1281;24368;-82
2022/06/09 02:07:37;;;;;;;12.70;7.50;;;;;;;14.42;60.63;98088.45;105493;1284;22587;-84
2022/06/09 02:10:17;;;;;;;14.20;6.80;;;;;;;14.39;60.65;98093.79;105519;1284;22632;-80
2022/06/09 02:12:54;;;;;;;12.50;7.00;;;;;;;14.35;60.61;98096.40;105324;1284;23062;-85
2022/06/09 02:15:36;;;;;;;14.40;7.10;;;;;;;14.29;60.57;98103.20;105567;1284;22541;-84
2022/06/09 02:18:08;;;;;;;13.20;6.50;;;;;;;14.25;60.64;98103.85;105588;1281;25524;-83
2022/06/09 02:20:58;;;;;;;11.30;6.00;;;;;;;14.22;60.61;98101.08;105519;1284;22749;-83
2022/06/09 02:23:28;;;;;;;12.80;6.50;;;;;;;14.17;60.69;98101.20;105477;1284;22554;-76
2022/06/09 02:25:55;;;;;;;11.10;6.20;;;;;;;14.15;60.76;98098.41;105551;1284;22620;-77
2022/06/09 02:28:23;;;;;;;12.70;6.40;;;;;;;14.13;60.78;98095.74;105128;1282;25589;-77
2022/06/09 02:31:13;;;;;;;14.70;6.00;;;;;;;14.10;60.69;98096.62;105458;1274;24078;-77
2022/06/09 02:33:41;;;;;;;13.70;5.80;;;;;;;13.99;60.73;98096.96;105879;1274;22538;-81
2022/06/09 02:36:09;;;;;;;11.80;5.50;;;;;;;13.90;60.78;98103.07;105869;1274;22723;-75
2022/06/09 02:38:38;;;;;;;10.20;6.00;;;;;;;13.82;60.83;98102.27;105933;1274;25300;-77
2022/06/09 02:41:25;;;;;;;12.10;5.90;;;;;;;13.72;60.83;98102.89;105840;1274;25223;-77
2022/06/09 02:43:52;;;;;;;12.20;5.40;;;;;;;13.62;60.86;98104.85;105917;1275;25346;-77
2022/06/09 02:46:23;;;;;;;9.10;4.60;;;;;;;13.54;60.98;98107.97;106155;1274;22533;-78
2022/06/09 02:49:01;;;;;;;13.50;5.20;;;;;;;13.43;60.99;98111.57;105944;1275;22544;-81
2022/06/09 02:51:38;;;;;;;12.30;5.80;;;;;;;13.38;61.24;98115.95;106005;1274;25288;-78
2022/06/09 02:54:10;;;;;;;10.10;5.30;;;;;;;13.39;61.28;98123.36;106067;1274;22547;-84
2022/06/09 02:56:58;;;;;;;12.40;6.70;;;;;;;13.39;61.36;98125.38;106043;1274;22568;-79
2022/06/09 02:59:41;;;;;;;11.90;6.30;;;;;;;13.29;61.27;98129.05;106247;1274;21880;-82
2022/06/09 03:02:22;;;;;;;16.10;6.20;;;;;;;13.14;61.51;98133.70;106251;1274;24360;-84
2022/06/09 03:04:50;;;;;;;12.80;5.70;;;;;;;13.03;61.56;98133.84;105875;1275;24061;-78
2022/06/09 03:07:19;;;;;;;12.10;5.60;;;;;;;12.94;61.73;98133.27;105905;1274;26797;-81
2022/06/09 03:09:46;;;;;;;14.60;5.70;;;;;;;12.86;61.89;98132.45;106315;1274;22550;-77
2022/06/09 03:12:14;;;;;;;13.40;5.70;;;;;;;12.81;61.98;98131.20;106266;1274;22583;-84
2022/06/09 03:15:02;;;;;;;11.50;5.40;;;;;;;12.79;62.10;98133.86;105903;1274;25226;-79
2022/06/09 03:17:32;;;;;;;12.60;4.90;;;;;;;12.80;62.28;98135.95;106251;1273;24061;-77
2022/06/09 03:19:59;;;;;;;11.90;5.90;;;;;;;12.80;62.41;98137.88;105984;1274;25330;-77
2022/06/09 03:22:46;;;;;;;15.00;6.30;;;;;;;12.83;62.51;98138.07;105647;1281;24408;-78
2022/06/09 03:25:14;;;;;;;15.90;6.00;;;;;;;12.91;62.57;98140.38;105655;1279;25412;-78
2022/06/09 03:27:41;;;;;;;11.80;5.70;;;;;;;12.94;62.60;98140.92;105610;1281;24476;-79
2022/06/09 03:30:09;;;;;;;12.60;5.50;;;;;;;12.94;62.63;98138.14;105595;1281;24220;-78
2022/06/09 03:32:44;;;;;;;16.70;6.90;;;;;;;12.94;62.74;98137.71;105614;1280;22828;-81
2022/06/09 03:35:12;;;;;;;21.50;6.90;;;;;;;12.99;62.95;98137.88;105630;1281;24263;-75
2022/06/09 03:37:39;;;;;;;18.50;6.70;;;;;;;13.03;63.01;98135.30;105638;1280;25475;-77
2022/06/09 03:40:14;;;;;;;13.40;5.50;;;;;;;13.04;62.97;98133.92;105623;1281;22559;-84
2022/06/09 03:42:41;;;;;;;14.90;5.60;;;;;;;13.08;63.11;98133.73;105705;1280;24308;-80
2022/06/09 03:45:09;;;;;;;13.30;5.80;;;;;;;13.13;63.05;98130.55;105608;1281;24314;-78
2022/06/09 03:47:36;;;;;;;12.80;6.00;;;;;;;13.20;63.13;98127.92;105579;1281;22535;-83
2022/06/09 03:50:04;;;;;;;16.80;6.10;;;;;;;13.29;63.15;98129.41;105594;1280;24234;-81
2022/06/09 03:52:32;;;;;;;14.30;6.20;;;;;;;13.39;63.16;98132.91;105727;1279;24491;-83
2022/06/09 03:54:59;;;;;;;15.50;5.60;;;;;;;13.49;63.21;98129.94;105804;1274;23439;-81
2022/06/09 03:57:26;;;;;;;9.90;4.70;;;;;;;13.59;63.37;98128.91;105912;1277;23962;-77
2022/06/09 03:59:53;;;;;;;11.00;5.00;;;;;;;13.70;63.26;98134.45;105986;1274;22583;-84
2022/06/09 04:02:23;;;;;;;10.30;5.00;;;;;;;13.78;63.25;98132.22;106027;1274;25297;-76
2022/06/09 04:04:59;;;;;;;12.70;5.40;;;;;;;13.93;63.47;98136.81;105919;1275;24275;-79
2022/06/09 04:07:40;;;;;;;14.40;5.60;;;;;;;14.15;63.59;98138.35;106011;1274;26538;-82
2022/06/09 04:10:07;;;;;;;14.40;5.60;;;;;;;14.28;63.25;98143.56;106236;1274;25490;-79
2022/06/09 04:12:35;;;;;;;21.50;6.60;;;;;;;14.36;63.28;98145.27;106241;1274;22533;-83
2022/06/09 04:15:05;;;;;;;19.30;8.10;;;;;;;14.45;63.23;98148.52;105846;1275;25261;-77
2022/06/09 04:17:32;;;;;;;19.10;7.40;;;;;;;14.51;63.12;98144.68;106295;1273;24237;-83
2022/06/09 04:19:59;;;;;;;16.90;6.70;;;;;;;14.57;63.18;98148.51;106165;1274;22612;-80
2022/06/09 04:22:36;;;;;;;16.40;6.70;;;;;;;14.69;63.34;98154.12;106268;1274;23898;-82
2022/06/09 04:25:05;;;;;;;15.40;6.60;;;;;;;14.81;63.25;98162.89;105945;1277;22517;-82
2022/06/09 04:27:32;;;;;;;19.90;6.60;;;;;;;14.88;63.13;98165.05;105895;1276;25317;-81
2022/06/09 04:29:59;;;;;;;18.20;6.70;;;;;;;14.90;63.15;98166.11;105997;1274;22544;-76
2022/06/09 04:32:46;;;;;;;18.40;6.00;;;;;;;14.95;63.21;98165.19;105917;1274;22714;-84
2022/06/09 04:35:19;;;;;;;21.40;6.30;;;;;;;15.03;63.25;98168.52;105978;1274;22553;-82
2022/06/09 04:38:01;;;;;;;20.00;6.70;;;;;;;15.09;63.25;98169.83;105886;1275;22546;-84
2022/06/09 04:40:32;;;;;;;15.60;6.40;;;;;;;15.16;63.14;98175.55;105889;1277;22538;-83
2022/06/09 04:43:04;;;;;;;18.70;6.80;;;;;;;15.24;63.25;98174.39;105912;1274;22794;-76
2022/06/09 04:45:32;;;;;;;17.30;6.60;;;;;;;15.30;63.23;98170.86;105844;1275;25484;-74
2022/06/09 04:48:00;;;;;;;18.50;6.80;;;;;;;15.36;63.21;98174.83;105894;1274;24241;-77
2022/06/09 04:50:27;;;;;;;15.60;6.60;;;;;;;15.46;63.31;98179.80;105888;1274;24247;-83
2022/06/09 04:52:54;;;;;;;16.30;7.40;;;;;;;15.54;63.27;98182.83;105878;1274;24300;-81
2022/06/09 04:55:24;;;;;;;16.20;7.20;;;;;;;15.62;63.33;98184.26;105865;1274;25245;-76
2022/06/09 04:57:51;;;;;;;13.20;6.60;;;;;;;15.70;63.23;98182.98;105900;1274;22576;-77
2022/06/09 05:00:18;;;;;;;13.50;7.10;;;;;;;15.77;63.30;98186.55;105856;1274;22540;-82
2022/06/09 05:02:45;;;;;;;14.20;7.20;;;;;;;15.82;63.18;98186.70;105904;1274;24312;-76
2022/06/09 05:05:34;;;;;;;14.90;6.60;;;;;;;15.88;63.26;98186.20;105917;1274;22529;-81
2022/06/09 05:08:01;;;;;;;18.80;6.10;;;;;;;15.95;63.22;98186.70;106229;1273;25301;-76
2022/06/09 05:10:31;;;;;;;12.70;5.70;;;;;;;16.03;63.21;98188.39;105855;1274;22570;-81
2022/06/09 05:13:08;;;;;;;17.20;6.90;;;;;;;16.10;63.32;98183.12;105884;1274;25516;-77
2022/06/09 05:15:47;;;;;;;19.80;6.70;;;;;;;16.16;63.32;98186.56;105844;1275;24287;-83
2022/06/09 05:18:16;;;;;;;11.80;6.20;;;;;;;16.20;63.19;98185.25;105931;1274;23038;-76
2022/06/09 05:20:43;;;;;;;13.60;7.00;;;;;;;16.20;63.10;98185.92;105956;1274;24274;-76
2022/06/09 05:23:11;;;;;;;14.70;6.10;;;;;;;16.15;63.00;98190.23;105891;1273;24284;-76
2022/06/09 05:25:38;;;;;;;16.20;6.30;;;;;;;16.16;63.22;98197.16;105876;1274;22563;-75
2022/06/09 05:28:06;;;;;;;15.20;6.50;;;;;;;16.21;63.30;98200.60;106127;1273;25239;-78
2022/06/09 05:30:33;;;;;;;15.10;5.80;;;;;;;16.28;63.53;98200.95;105975;1275;22586;-77
2022/06/09 05:33:01;;;;;;;14.50;6.00;;;;;;;16.37;63.49;98208.52;105860;1275;25392;-76
2022/06/09 05:35:34;;;;;;;18.90;6.60;;;;;;;16.46;63.41;98209.13;105880;1274;22580;-80
2022/06/09 05:46:40;;;;;;;26.10;9.60;;;;;;;16.53;63.39;98217.89;106009;1274;25324;-81
2022/06/09 05:49:09;;;;;;;29.30;9.30;;;;;;;16.54;63.55;98219.64;106009;1274;22632;-84
2022/06/09 05:51:36;;;;;;;30.90;10.50;;;;;;;16.59;63.67;98222.11;105858;1274;22555;-84
2022/06/09 05:54:07;;;;;;;23.60;8.70;;;;;;;16.67;63.73;98223.96;105830;1274;25481;-76
2022/06/09 05:56:35;;;;;;;23.90;8.80;;;;;;;16.73;63.74;98220.38;105930;1274;22535;-82
2022/06/09 05:59:02;;;;;;;20.60;8.20;;;;;;;16.83;63.74;98222.55;105785;1277;24300;-84
2022/06/09 06:01:29;;;;;;;16.20;7.80;;;;;;;16.89;63.63;98220.19;105835;1274;24300;-83
2022/06/09 06:03:59;;;;;;;16.30;7.80;;;;;;;16.89;63.50;98223.96;105919;1274;22532;-81
2022/06/09 06:06:35;;;;;;;14.60;7.10;;;;;;;16.86;63.58;98223.58;105925;1274;25336;-79
2022/06/09 06:09:16;;;;;;;14.50;6.80;;;;;;;16.88;63.56;98226.06;106219;1274;23897;-85
2022/06/09 06:11:45;;;;;;;16.70;7.40;;;;;;;16.85;63.59;98224.31;106133;1274;22742;-82
2022/06/09 06:14:12;;;;;;;15.50;7.00;;;;;;;16.87;63.75;98228.32;106118;1273;22567;-80
2022/06/09 06:16:40;;;;;;;17.20;7.60;;;;;;;16.94;63.79;98225.92;105919;1274;25280;-76
2022/06/09 06:19:10;;;;;;;16.60;8.30;;;;;;;17.02;63.89;98221.66;105941;1274;23112;-78
2022/06/09 06:21:38;;;;;;;20.20;8.00;;;;;;;17.13;63.92;98223.86;105939;1274;25230;-77
2022/06/09 06:24:08;;;;;;;21.30;8.70;;;;;;;17.32;64.29;98220.80;105915;1274;24208;-84
2022/06/09 06:26:37;;;;;;;18.30;9.90;;;;;;;17.55;64.26;98218.77;106122;1273;22537;-82
2022/06/09 06:29:07;;;;;;;18.80;10.10;;;;;;;17.78;64.37;98220.04;106138;1274;24310;-80
2022/06/09 06:31:35;;;;;;;24.40;12.30;;;;;;;18.01;64.23;98214.85;106174;1273;24363;-83
2022/06/09 06:34:02;;;;;;;24.90;12.50;;;;;;;18.22;64.35;98217.29;106117;1274;24281;-80
2022/06/09 06:36:29;;;;;;;22.40;13.10;;;;;;;18.41;64.38;98222.95;105963;1274;25040;-78
2022/06/09 06:38:57;;;;;;;22.50;13.60;;;;;;;18.63;64.41;98220.39;105922;1274;22775;-84
2022/06/09 06:41:27;;;;;;;24.90;13.50;;;;;;;18.82;64.25;98223.19;106107;1274;23997;-79
2022/06/09 06:43:54;;;;;;;23.60;13.70;;;;;;;18.94;64.26;98222.26;106151;1274;24258;-79
2022/06/09 06:46:41;;;;;;;20.80;11.30;;;;;;;19.03;64.18;98225.65;105860;1274;22630;-80
2022/06/09 06:49:08;;;;;;;22.00;11.20;;;;;;;19.05;63.87;98225.94;106156;1273;22567;-83
2022/06/09 06:51:38;;;;;;;20.20;10.10;;;;;;;19.09;63.91;98220.63;105861;1274;25389;-79
2022/06/09 06:54:07;;;;;;;18.40;8.50;;;;;;;19.14;63.95;98221.26;106144;1273;24212;-85
2022/06/09 06:56:37;;;;;;;17.30;8.10;;;;;;;19.21;64.05;98223.55;106158;1274;22553;-81
2022/06/09 06:59:04;;;;;;;17.30;8.70;;;;;;;19.25;63.83;98225.59;106150;1273;22535;-81
2022/06/09 07:01:34;;;;;;;14.50;8.50;;;;;;;19.24;63.75;98226.38;106135;1274;22628;-78
2022/06/09 07:04:14;;;;;;;15.00;7.50;;;;;;;19.17;63.76;98227.04;105962;1274;23030;-78
2022/06/09 07:06:55;;;;;;;;;;;;;;;;;;;;;
2022/06/09 07:09:25;;;;;;;10.40;4.40;;;;;;;19.08;63.15;98230.10;105841;1274;26905;-84
2022/06/09 07:12:12;;;;;;;9.10;4.10;;;;;;;18.99;63.05;98226.84;105899;1274;22661;-81
2022/06/09 07:14:39;;;;;;;11.20;5.20;;;;;;;18.93;62.98;98226.36;106061;1273;23931;-83
2022/06/09 07:17:27;;;;;;;9.20;4.20;;;;;;;18.93;63.11;98230.11;106035;1273;23950;-78
2022/06/09 07:20:07;;;;;;;13.30;4.30;;;;;;;19.01;63.04;98235.98;105996;1274;22535;-83
2022/06/09 07:22:34;;;;;;;11.70;4.20;;;;;;;19.06;62.88;98242.05;105998;1274;25350;-81
2022/06/09 07:25:02;;;;;;;12.50;4.80;;;;;;;19.09;62.71;98244.06;105954;1274;22571;-81
2022/06/09 07:27:34;;;;;;;18.30;4.20;;;;;;;19.17;62.87;98245.94;106181;1273;25531;-82
2022/06/09 07:30:29;;;;;;;11.10;3.60;;;;;;;19.28;62.85;98246.17;105944;1274;23359;-83
2022/06/09 07:32:56;;;;;;;14.50;3.90;;;;;;;19.39;62.60;98249.30;106207;1273;25508;-86
2022/06/09 07:35:30;;;;;;;12.00;3.90;;;;;;;19.53;62.63;98253.59;105876;1273;25534;-80
2022/06/09 07:37:58;;;;;;;14.40;4.00;;;;;;;19.69;62.52;98256.42;105942;1274;22535;-82
2022/06/09 07:40:31;;;;;;;11.70;3.70;;;;;;;19.91;62.69;98256.30;105994;1274;25241;-82
2022/06/09 07:42:58;;;;;;;13.70;3.50;;;;;;;20.07;62.23;98255.81;105996;1274;22531;-86
2022/06/09 07:45:29;;;;;;;7.80;3.10;;;;;;;20.08;62.28;98259.28;105945;1274;25535;-78
2022/06/09 07:47:59;;;;;;;7.20;3.00;;;;;;;20.11;61.84;98264.07;106052;1273;22567;-85
2022/06/09 07:50:26;;;;;;;8.70;3.50;;;;;;;20.06;61.90;98263.52;105928;1274;24405;-81
2022/06/09 07:52:56;;;;;;;8.00;3.00;;;;;;;20.08;61.94;98266.63;105961;1274;22603;-84
2022/06/09 07:55:36;;;;;;;6.60;2.60;;;;;;;20.04;61.95;98264.65;106011;1273;22563;-85
2022/06/09 07:58:04;;;;;;;7.90;3.10;;;;;;;20.12;61.77;98268.70;105992;1274;22534;-83
2022/06/09 08:00:57;;;;;;;11.20;3.20;;;;;;;20.25;61.88;98266.73;106053;1274;25327;-82
2022/06/09 08:03:26;;;;;;;9.00;2.90;;;;;;;20.40;62.10;98269.41;106222;1273;25369;-82
2022/06/09 08:06:01;;;;;;;11.20;3.00;;;;;;;20.75;62.18;98276.21;106010;1274;22537;-82
2022/06/09 08:08:28;;;;;;;10.10;3.20;;;;;;;21.14;61.89;98280.20;106043;1273;25311;-83
2022/06/09 08:10:57;;;;;;;9.00;2.70;;;;;;;21.29;61.52;98284.30;106041;1274;22568;-84
2022/06/09 08:13:24;;;;;;;10.20;2.80;;;;;;;21.23;61.37;98285.61;105934;1274;24243;-81
2022/06/09 08:15:57;;;;;;;8.90;3.00;;;;;;;21.18;61.40;98288.41;106014;1274;22819;-80
2022/06/09 08:18:39;;;;;;;7.30;2.60;;;;;;;21.12;61.19;98292.95;105959;1273;22552;-83
2022/06/09 08:21:06;;;;;;;6.70;2.60;;;;;;;21.08;61.32;98292.30;106038;1274;22701;-82
2022/06/09 08:23:33;;;;;;;8.40;2.90;;;;;;;21.11;61.59;98297.30;105998;1274;24314;-83
2022/06/09 08:26:05;;;;;;;6.90;3.00;;;;;;;21.08;61.03;98298.73;105960;1274;25477;-80
2022/06/09 08:28:32;;;;;;;8.70;2.90;;;;;;;20.86;61.16;98298.29;105999;1274;23189;-83
2022/06/09 08:30:59;;;;;;;8.00;2.90;;;;;;;20.83;61.56;98298.84;105941;1276;24287;-85
2022/06/09 08:33:47;;;;;;;6.30;2.80;;;;;;;20.89;61.75;98300.02;105852;1274;22551;-84
2022/06/09 08:36:19;;;;;;;6.70;2.70;;;;;;;20.99;61.28;98300.11;106280;1273;24204;-87
2022/06/09 08:38:53;;;;;;;7.90;2.80;;;;;;;20.80;61.10;98298.64;105964;1274;24280;-84
2022/06/09 08:41:39;;;;;;;7.00;3.00;;;;;;;20.69;61.27;98299.41;105957;1274;24296;-87
2022/06/09 08:44:33;;;;;;;8.20;3.10;;;;;;;20.70;61.66;98296.09;106290;1273;24358;-83
2022/06/09 08:47:07;;;;;;;7.70;3.10;;;;;;;20.81;61.44;98297.90;106004;1274;24514;-83
2022/06/09 08:50:00;;;;;;;7.30;2.70;;;;;;;20.83;61.21;98303.39;106176;1273;25461;-79
2022/06/09 08:52:50;;;;;;;7.10;2.90;;;;;;;20.79;61.27;98303.19;105982;1274;25318;-78
2022/06/09 08:55:26;;;;;;;7.20;3.00;;;;;;;20.83;61.46;98304.68;106299;1273;25408;-82
2022/06/09 08:58:04;;;;;;;6.60;2.80;;;;;;;20.93;61.23;98315.51;106165;1273;25391;-82
2022/06/09 09:00:41;;;;;;;6.80;3.00;;;;;;;20.86;60.95;98317.86;105784;1273;22693;-77
2022/06/09 09:03:26;;;;;;;5.80;2.30;;;;;;;20.83;61.21;98327.85;105862;1275;25243;-82
2022/06/09 09:06:07;;;;;;;10.70;3.20;;;;;;;20.92;61.34;98335.00;105902;1274;25166;-83
2022/06/09 09:08:38;;;;;;;6.80;2.50;;;;;;;20.97;60.89;98336.92;105961;1273;24390;-83
2022/06/09 09:11:17;;;;;;;6.10;2.50;;;;;;;20.93;60.68;98339.89;106185;1273;22528;-83
2022/06/09 09:13:52;;;;;;;7.50;2.90;;;;;;;21.01;60.96;98339.42;106051;1274;25274;-84
2022/06/09 09:16:37;;;;;;;7.90;2.60;;;;;;;21.05;60.79;98339.65;105985;1273;22611;-83
2022/06/09 09:19:38;;;;;;;9.00;2.60;;;;;;;21.08;60.83;98340.75;105973;1274;22758;-79
2022/06/09 09:22:35;;;;;;;11.20;2.80;;;;;;;21.13;61.13;98347.16;105994;1274;24355;-82
2022/06/09 09:25:33;;;;;;;8.00;2.70;;;;;;;21.42;61.46;98347.96;105783;1274;22625;-82
2022/06/09 09:28:28;;;;;;;8.90;2.80;;;;;;;21.61;60.83;98353.53;105698;1275;22542;-82
2022/06/09 09:31:43;;;;;;;11.30;2.50;;;;;;;21.68;60.92;98347.48;106064;1275;25276;-86
2022/06/09 09:34:19;;;;;;;8.60;2.50;;;;;;;21.76;60.24;98346.40;105902;1276;23920;-84
2022/06/09 09:36:51;;;;;;;6.40;2.70;;;;;;;21.54;60.41;98348.73;105994;1274;22612;-83
2022/06/09 09:39:35;;;;;;;8.30;2.40;;;;;;;21.49;60.68;98356.45;105863;1274;25336;-82
2022/06/09 09:42:37;;;;;;;6.60;2.60;;;;;;;21.49;60.58;98358.42;105873;1274;22600;-82
2022/06/09 09:45:43;;;;;;;11.60;2.80;;;;;;;21.50;60.71;98356.89;105921;1274;22652;-82
2022/06/09 09:48:37;;;;;;;8.80;2.50;;;;;;;21.45;60.57;98358.14;105985;1274;24293;-77
2022/06/09 09:51:26;;;;;;;11.40;2.40;;;;;;;21.23;60.10;98363.11;106057;1274;24303;-83
2022/06/09 09:53:58;;;;;;;8.60;2.70;;;;;;;21.09;60.51;98359.39;105978;1274;23902;-83
2022/06/09 09:56:36;;;;;;;8.10;2.70;;;;;;;21.02;60.39;98361.95;106021;1274;25595;-79
2022/06/09 09:59:24;;;;;;;8.70;3.00;;;;;;;20.91;60.13;98365.17;105991;1273;22710;-83
2022/06/09 10:14:41;;;;;;;6.40;2.90;;;;;;;20.57;60.69;98376.67;106067;1274;22560;-84
2022/06/09 10:17:51;;;;;;;6.90;2.60;;;;;;;20.56;60.61;98373.69;106030;1274;24065;-81
2022/06/09 10:20:42;;;;;;;5.10;2.30;;;;;;;20.49;60.48;98372.92;105617;1282;22619;-83
2022/06/09 10:23:10;;;;;;;6.40;2.60;;;;;;;20.53;60.63;98374.33;105477;1282;25623;-81
2022/06/09 10:26:14;;;;;;;8.70;2.60;;;;;;;20.56;60.60;98374.41;105454;1282;25488;-79
2022/06/09 10:29:13;;;;;;;6.60;2.50;;;;;;;20.61;60.65;98371.30;105480;1282;24364;-81
2022/06/09 10:32:14;;;;;;;8.30;2.70;;;;;;;20.61;60.35;98372.52;105631;1282;24384;-82
2022/06/09 10:35:14;;;;;;;8.90;3.30;;;;;;;20.59;60.76;98372.67;105566;1282;23130;-78
2022/06/09 10:37:56;;;;;;;8.50;2.70;;;;;;;20.58;60.39;98370.77;105339;1282;22544;-80
2022/06/09 10:41:15;;;;;;;10.30;2.80;;;;;;;20.65;60.98;98373.24;105027;1282;22858;-79
2022/06/09 10:44:15;;;;;;;7.80;3.00;;;;;;;20.82;60.72;98372.05;104570;1287;22541;-80
2022/06/09 10:56:16;;;;;;;9.50;3.40;;;;;;;20.74;60.35;98388.58;104818;1287;25319;-78
2022/06/09 10:58:57;;;;;;;7.90;3.30;;;;;;;20.65;60.46;98386.65;105405;1282;24294;-77
2022/06/09 11:01:33;;;;;;;9.60;3.60;;;;;;;20.67;60.79;98385.70;105370;1284;24373;-81
2022/06/09 11:04:15;;;;;;;8.00;2.90;;;;;;;20.80;60.74;98389.18;105430;1285;22552;-78
2022/06/09 11:07:11;;;;;;;;;;;;;;;;;;;;;
2022/06/09 11:10:30;;;;;;;;;;;;;;;;;;;;;
2022/06/09 11:13:20;;;;;;;8.60;3.30;;;;;;;21.08;60.41;98396.29;105084;1282;23921;-80
2022/06/09 11:16:29;;;;;;;5.80;2.40;;;;;;;21.15;60.68;98398.07;105018;1282;22733;-84
2022/06/09 11:19:19;;;;;;;7.60;2.80;;;;;;;21.43;60.85;98395.68;105440;1275;25343;-82
2022/06/09 11:22:06;;;;;;;8.50;3.30;;;;;;;21.62;60.63;98393.02;105946;1274;25343;-80
2022/06/09 11:25:25;;;;;;;9.00;3.40;;;;;;;21.76;60.40;98391.40;106042;1274;22608;-81
2022/06/09 11:28:18;;;;;;;7.90;3.40;;;;;;;21.83;60.27;98393.53;105950;1276;22562;-80
2022/06/09 11:32:02;;;;;;;7.20;2.60;;;;;;;21.89;60.20;98392.61;105945;1274;22587;-79
2022/06/09 11:35:18;;;;;;;9.30;2.90;;;;;;;21.99;60.30;98385.73;105970;1276;25235;-77
2022/06/09 11:38:40;;;;;;;8.20;3.00;;;;;;;22.12;60.05;98391.58;106064;1274;24304;-81
2022/06/09 11:41:32;;;;;;;5.50;2.60;;;;;;;22.24;60.11;98391.14;105980;1275;22535;-82
2022/06/09 11:44:17;;;;;;;5.90;2.60;;;;;;;22.42;60.40;98387.89;106041;1274;22562;-86
2022/06/09 11:46:49;;;;;;;7.80;2.80;;;;;;;22.53;60.05;98390.57;105971;1275;24287;-81
2022/06/09 11:49:38;;;;;;;5.40;2.20;;;;;;;22.61;60.29;98386.50;105974;1276;25307;-81
2022/06/09 11:52:24;;;;;;;6.70;2.60;;;;;;;22.76;59.63;98389.35;105999;1275;24210;-78
2022/06/09 11:58:44;;;;;;;5.50;2.10;;;;;;;22.50;59.29;98394.86;105923;1276;25726;-80
2022/06/09 12:01:26;;;;;;;5.20;2.00;;;;;;;22.38;59.70;98397.98;105887;1274;22560;-83
2022/06/09 12:04:14;;;;;;;5.20;2.20;;;;;;;22.43;59.62;98397.77;105971;1275;22763;-83
2022/06/09 12:07:01;;;;;;;7.00;2.20;;;;;;;22.42;59.28;98398.64;106029;1274;25337;-78
2022/06/09 12:09:35;;;;;;;5.50;2.00;;;;;;;22.32;59.48;98397.45;106051;1274;24355;-87
2022/06/09 12:12:31;;;;;;;7.20;2.20;;;;;;;22.39;59.85;98400.93;106034;1274;22621;-80
2022/06/09 12:15:31;;;;;;;9.00;2.10;;;;;;;22.52;59.94;98400.90;105970;1275;22563;-81
2022/06/09 12:18:30;;;;;;;8.40;2.50;;;;;;;22.60;59.69;98405.67;105943;1274;22528;-85
2022/06/09 12:21:14;;;;;;;9.20;2.40;;;;;;;22.59;59.94;98407.21;106001;1274;24270;-84
2022/06/09 12:23:52;;;;;;;7.50;2.40;;;;;;;22.57;59.53;98408.04;105932;1275;22572;-79
2022/06/09 12:26:43;;;;;;;5.90;2.20;;;;;;;22.56;59.77;98404.52;105909;1274;22827;-79
2022/06/09 12:29:37;;;;;;;5.90;2.60;;;;;;;22.49;59.63;98406.96;105971;1275;22590;-85
2022/06/09 12:32:18;;;;;;;7.10;2.70;;;;;;;22.47;59.52;98406.15;106013;1274;24305;-85
2022/06/09 12:34:53;;;;;;;6.40;2.50;;;;;;;22.43;59.63;98404.38;106078;1274;22617;-80
2022/06/09 12:37:33;;;;;;;5.50;2.20;;;;;;;22.50;59.80;98403.41;106103;1274;22544;-85
2022/06/09 12:40:20;;;;;;;5.30;2.30;;;;;;;22.56;59.64;98406.86;105857;1276;22530;-82
2022/06/09 12:43:07;;;;;;;5.40;2.20;;;;;;;22.55;59.03;98400.29;106007;1274;25453;-78
2022/06/09 12:45:38;;;;;;;6.90;2.70;;;;;;;22.49;59.30;98405.23;105991;1274;24303;-81
2022/06/09 12:48:16;;;;;;;5.50;2.40;;;;;;;22.50;59.33;98405.20;105908;1276;22551;-84